Latest Weather Observations for Walungurru (Kintore)

IDD60801

Issued at 10:01 pm CST Monday 6 July 2020 (issued every 10 minutes, with the page automatically refreshed every 10 minutes)

About weather observations | Map of weather stations | Latest weather observations for NT | Other Formats
Station Details ID: 015664 Name: WALUNGURRU AIRPORT Lat: -23.27 Lon: 129.38 Height: 454.3 m
Data from the previous 72 hours. | See also: Recent months at Walungurru (Kintore)
Date/Time
CST
Temp
°C
App
Temp
°C
Dew
Point
°C
Rel
Hum
%
Delta-T
°C
Wind Press
QNH
hPa
Press
MSL
hPa
Rain since
9am
mm
Dir  Spd
km/h
Gust
km/h
Spd
kts
Gust
kts
06/10:00pm 16.3 8.8 -4.3 24 8.2 SE 26 35 14 19 1023.9 1022.8 0.0
06/09:30pm 16.7 9.2 -4.5 23 8.4 SE 26 35 14 19 1024.0 1022.9 0.0
06/09:00pm 17.7 9.8 -4.3 22 8.9 SE 28 35 15 19 1023.9 1022.8 0.0
06/08:30pm 18.3 10.8 -5.0 20 9.3 SE 26 33 14 18 1023.8 1022.7 0.0
06/08:00pm 19.0 13.2 -5.1 19 9.8 SE 17 24 9 13 1023.7 1022.6 0.0
06/07:30pm 19.2 13.7 -5.7 18 9.9 ESE 15 20 8 11 1023.5 1022.4 0.0
06/07:00pm 19.5 14.3 -6.2 17 10.2 SE 13 19 7 10 1023.0 1022.0 0.0
06/06:30pm 20.0 15.2 -6.5 16 10.5 ESE 11 15 6 8 1022.7 1021.6 0.0
06/06:00pm 21.1 15.0 -7.4 14 11.2 SE 17 22 9 12 1022.3 1021.2 0.0
06/05:30pm 21.8 15.4 -6.8 14 11.5 E 19 26 10 14 1022.0 1020.9 0.0
06/05:00pm 21.9 15.9 -6.8 14 11.6 E 17 26 9 14 1022.0 1020.9 0.0
06/04:30pm 22.3 17.1 -6.5 14 11.7 ESE 13 22 7 12 1022.1 1021.0 0.0
06/04:00pm 22.1 16.5 -6.6 14 11.6 E 15 22 8 12 1022.2 1021.1 0.0
06/03:30pm 21.7 15.3 -6.9 14 11.4 ENE 19 28 10 15 1022.5 1021.4 0.0
06/03:00pm 21.7 15.7 -6.9 14 11.4 E 17 28 9 15 1022.9 1021.8 0.0
06/02:30pm 21.3 16.1 -6.3 15 11.1 ENE 13 24 7 13 1023.2 1022.2 0.0
06/02:00pm 20.5 14.2 -5.4 17 10.6 ENE 19 26 10 14 1023.6 1022.5 0.0
06/01:30pm 20.3 14.6 -4.0 19 10.1 E 17 28 9 15 1024.0 1022.9 0.0
06/01:00pm 19.9 13.8 -3.7 20 9.9 ENE 19 28 10 15 1024.5 1023.4 0.0
06/12:30pm 19.0 12.4 -3.2 22 9.3 E 22 30 12 16 1024.8 1023.7 0.0
06/12:00pm 18.1 11.2 -2.8 24 8.7 ENE 24 35 13 19 1025.1 1024.1 0.0
06/11:30am 17.3 9.7 -2.4 26 8.2 E 28 37 15 20 1025.4 1024.4 0.0
06/11:00am 16.6 9.0 -2.0 28 7.8 E 28 37 15 20 1025.9 1024.8 0.0
06/10:30am 15.1 7.5 -1.9 31 7.0 ENE 28 37 15 20 1026.1 1025.0 0.0
06/10:00am 14.1 5.8 -1.5 34 6.5 ENE 32 41 17 22 1026.2 1025.1 0.0
06/09:30am 12.7 5.2 -1.2 38 5.7 E 28 39 15 21 1026.3 1025.2 0.0
06/09:00am 11.9 4.0 -1.3 40 5.4 E 30 39 16 21 1026.1 1025.0 0.0
06/08:30am 11.7 3.8 -1.4 40 5.3 E 30 43 16 23 1026.0 1024.9 0.0
06/08:00am 11.4 3.5 -1.7 40 5.3 E 30 41 16 22 1025.7 1024.6 0.0
06/07:30am 11.5 4.0 -1.6 40 5.3 E 28 39 15 21 1025.2 1024.2 0.0
06/07:00am 11.7 4.5 -2.1 38 5.5 E 26 33 14 18 1025.1 1024.1 0.0
06/06:30am 12.0 5.2 -2.2 37 5.7 E 24 35 13 19 1024.8 1023.7 0.0
06/06:00am 12.2 5.3 -2.4 36 5.8 E 24 35 13 19 1024.4 1023.3 0.0
06/05:30am 12.5 5.6 -2.9 34 6.1 E 24 35 13 19 1024.1 1023.0 0.0
06/05:00am 13.0 5.6 -3.3 32 6.4 E 26 35 14 19 1024.2 1023.1 0.0
06/04:30am 13.4 5.6 -3.4 31 6.6 E 28 39 15 21 1023.9 1022.8 0.0
06/04:00am 14.2 5.7 -3.6 29 7.1 E 32 41 17 22 1023.8 1022.7 0.0
06/03:30am 14.6 6.1 -3.7 28 7.3 E 32 41 17 22 1023.8 1022.7 0.0
06/03:00am 15.1 6.5 -4.2 26 7.6 E 32 44 17 24 1023.8 1022.7 0.0
06/02:30am 15.5 6.9 -3.9 26 7.7 E 32 43 17 23 1023.9 1022.8 0.0
06/02:00am 16.1 8.7 -3.9 25 8.1 E 26 39 14 21 1024.1 1023.0 0.0
06/01:30am 15.3 7.9 -3.6 27 7.6 ESE 26 33 14 18 1024.2 1023.1 0.0
06/01:00am 15.3 7.1 -3.6 27 7.6 ESE 30 35 16 19 1024.1 1023.0 0.0
06/12:30am 15.6 8.2 -3.3 27 7.6 ESE 26 35 14 19 1024.2 1023.1 0.0
06/12:00am 16.0 8.5 -4.5 24 8.1 ESE 26 33 14 18 1024.1 1023.0 0.0
 
Date/Time
CST
Temp
°C
App
Temp
°C
Dew
Point
°C
Rel
Hum
%
Delta-T
°C
Wind Press
QNH
hPa
Press
MSL
hPa
Rain since
9am
mm
Dir  Spd
km/h
Gust
km/h
Spd
kts
Gust
kts
05/11:30pm 16.3 9.6 -4.3 24 8.2 ESE 22 28 12 15 1024.1 1023.0 0.0
05/11:00pm 16.7 9.5 -5.1 22 8.6 SE 24 32 13 17 1024.0 1022.9 0.0
05/10:30pm 16.3 10.0 -6.0 21 8.6 SE 19 22 10 12 1023.9 1022.8 0.0
05/10:00pm 17.3 12.1 -6.5 19 9.2 ESE 13 19 7 10 1023.8 1022.7 0.0
05/09:30pm 17.8 12.5 -6.8 18 9.5 ESE 13 17 7 9 1023.5 1022.4 0.0
05/09:00pm 17.7 12.4 -6.9 18 9.4 ESE 13 15 7 8 1023.2 1022.2 0.0
05/08:30pm 18.3 12.9 -7.9 16 9.9 ESE 13 15 7 8 1023.1 1022.1 0.0
05/08:00pm 19.0 14.4 -8.2 15 10.3 ESE 9 13 5 7 1022.8 1021.7 0.0
05/07:30pm 19.8 14.5 -7.5 15 10.6 ESE 13 17 7 9 1022.6 1021.5 0.0
05/07:00pm 19.0 13.5 -9.1 14 10.5 E 13 15 7 8 1022.4 1021.3 0.0
05/06:30pm 20.9 15.9 -8.5 13 11.3 E 11 15 6 8 1022.2 1021.1 0.0
05/06:00pm 22.4 17.0 -8.4 12 12.0 ENE 13 17 7 9 1021.9 1020.8 0.0
05/05:30pm 23.1 17.0 -7.8 12 12.3 E 17 22 9 12 1021.7 1020.6 0.0
05/05:00pm 23.3 17.2 -7.7 12 12.4 E 17 22 9 12 1021.6 1020.5 0.0
05/04:30pm 23.5 17.4 -7.5 12 12.5 ENE 17 26 9 14 1021.7 1020.6 0.0
05/04:00pm 23.4 17.3 -7.6 12 12.5 E 17 24 9 13 1021.9 1020.8 0.0
05/03:30pm 23.0 17.0 -6.9 13 12.1 ENE 17 26 9 14 1022.2 1021.1 0.0
05/03:00pm 22.7 16.8 -6.1 14 11.8 E 17 24 9 13 1022.4 1021.3 0.0
05/02:30pm 22.4 15.8 -7.3 13 11.9 ENE 20 28 11 15 1022.9 1021.8 0.0
05/02:00pm 22.0 15.7 -5.8 15 11.4 ENE 19 30 10 16 1023.4 1022.3 0.0
05/01:30pm 21.9 15.6 -4.2 17 11.0 ENE 20 30 11 16 1023.8 1022.7 0.0
05/01:00pm 20.9 14.8 -2.2 21 10.1 ENE 20 28 11 15 1024.5 1023.4 0.0
05/12:30pm 20.6 14.2 -1.8 22 9.8 E 22 32 12 17 1025.1 1024.1 0.0
05/12:00pm 19.1 13.2 -0.8 26 8.7 ENE 20 28 11 15 1025.8 1024.7 0.0
05/11:30am 18.1 12.0 0.3 30 7.9 E 22 30 12 16 1026.3 1025.2 0.0
05/11:00am 17.6 11.5 0.7 32 7.6 E 22 32 12 17 1026.7 1025.6 0.0
05/10:30am 16.2 9.8 1.1 36 6.7 E 24 35 13 19 1026.9 1025.9 0.0
05/10:00am 15.4 10.0 1.5 39 6.2 ESE 19 30 10 16 1026.8 1025.7 0.0
05/09:30am 14.0 8.8 2.3 45 5.3 SE 19 26 10 14 1026.5 1025.4 0.0
05/09:00am 12.1 8.0 2.3 51 4.3 SSE 13 20 7 11 1026.4 1025.3 0.0
05/08:30am 10.1 4.6 1.7 56 3.6 S 20 26 11 14 1026.1 1025.0 0.0
05/08:00am 10.4 5.5 2.0 56 3.6 S 17 22 9 12 1025.9 1024.8 0.0
05/07:30am 10.6 5.1 1.9 55 3.8 S 20 26 11 14 1025.4 1024.4 0.0
05/07:00am 11.0 5.7 1.8 53 4.0 S 19 28 10 15 1025.0 1024.0 0.0
05/06:30am 11.0 6.0 1.3 51 4.1 SSE 17 24 9 13 1024.8 1023.7 0.0
05/06:00am 11.4 6.8 1.4 50 4.3 SSE 15 19 8 10 1024.6 1023.5 0.0
05/05:30am 11.9 6.9 1.3 48 4.6 SSE 17 22 9 12 1024.5 1023.4 0.0
05/05:00am 12.1 7.3 0.5 45 4.9 SSE 15 20 8 11 1024.7 1023.6 0.0
05/04:30am 12.7 7.6 0.5 43 5.2 SE 17 24 9 13 1024.7 1023.6 0.0
05/04:00am 13.5 7.9 0.2 40 5.7 SE 19 24 10 13 1025.0 1024.0 0.0
05/03:30am 14.1 8.5 0.0 38 6.0 ESE 19 26 10 14 1025.1 1024.1 0.0
05/03:00am 14.5 8.8 -0.4 36 6.3 ESE 19 28 10 15 1025.1 1024.1 0.0
05/02:30am 14.7 9.5 -0.2 36 6.4 ESE 17 22 9 12 1025.5 1024.5 0.0
05/02:00am 15.1 9.4 -0.6 34 6.7 ESE 19 28 10 15 1025.5 1024.5 0.0
05/01:30am 15.2 9.5 -0.5 34 6.7 ESE 19 30 10 16 1025.9 1024.8 0.0
05/01:00am 15.4 8.0 -0.8 33 6.9 ESE 28 35 15 19 1025.8 1024.7 0.0
05/12:30am 15.8 8.8 -0.8 32 7.1 ESE 26 35 14 19 1025.5 1024.5 0.0
05/12:00am 16.1 8.7 -1.0 31 7.3 ESE 28 37 15 20 1025.5 1024.5 0.0
 
Date/Time
CST
Temp
°C
App
Temp
°C
Dew
Point
°C
Rel
Hum
%
Delta-T
°C
Wind Press
QNH
hPa
Press
MSL
hPa
Rain since
9am
mm
Dir  Spd
km/h
Gust
km/h
Spd
kts
Gust
kts
04/11:30pm 16.5 9.8 -1.1 30 7.5 ESE 24 33 13 18 1025.8 1024.7 0.0
04/11:00pm 16.7 10.4 -0.9 30 7.6 ESE 22 32 12 17 1026.3 1025.2 0.0
04/10:30pm 16.9 10.2 -1.2 29 7.7 SE 24 32 13 17 1026.7 1025.6 0.0
04/10:00pm 17.3 10.2 -1.4 28 8.0 ESE 26 37 14 20 1026.3 1025.2 0.0
04/09:30pm 17.8 11.1 -1.4 27 8.2 ESE 24 32 13 17 1026.2 1025.1 0.0
04/09:00pm 18.2 12.2 -1.6 26 8.5 SE 20 26 11 14 1026.0 1024.9 0.0
04/08:30pm 19.0 13.2 -1.4 25 8.9 ESE 19 28 10 15 1026.1 1025.0 0.0
04/08:00pm 19.7 14.1 -3.2 21 9.7 ESE 17 28 9 15 1025.9 1024.8 0.0
04/07:30pm 20.0 14.5 -5.8 17 10.3 SE 15 19 8 10 1025.4 1024.4 0.0
04/07:00pm 20.3 15.2 -5.5 17 10.5 ESE 13 20 7 11 1025.3 1024.3 0.0
04/06:30pm 20.5 14.9 -6.1 16 10.7 E 15 22 8 12 1024.8 1023.7 0.0
04/06:00pm 21.0 14.5 -5.7 16 10.8 E 20 26 11 14 1024.7 1023.6 0.0
04/05:30pm 21.5 15.3 -4.5 17 10.9 ESE 19 28 10 15 1024.6 1023.5 0.0
04/05:00pm 22.0 15.9 -4.1 17 11.1 ESE 19 26 10 14 1024.7 1023.6 0.0
04/04:30pm 22.2 16.5 -4.0 17 11.1 E 17 26 9 14 1025.0 1024.0 0.0
04/04:00pm 22.4 16.7 -3.8 17 11.2 E 17 24 9 13 1025.0 1024.0 0.0
04/03:30pm 22.5 16.2 -3.7 17 11.2 ENE 20 28 11 15 1025.1 1024.1 0.0
04/03:00pm 22.4 16.7 -3.8 17 11.2 E 17 24 9 13 1025.3 1024.3 0.0
04/02:30pm 23.1 17.5 -3.3 17 11.4 E 17 33 9 18 1025.5 1024.5 0.0
04/02:00pm 22.5 16.5 -3.0 18 11.1 E 19 26 10 14 1025.9 1024.8 0.0
04/01:30pm 21.1 15.5 -2.7 20 10.3 E 17 30 9 16 1026.4 1025.3 0.0
04/01:00pm 20.7 14.8 -2.4 21 10.0 E 19 28 10 15 1027.0 1026.0 0.0
04/12:30pm 20.5 15.1 -1.3 23 9.6 E 17 30 9 16 1027.6 1026.6 0.0
04/12:00pm 19.5 13.7 -1.6 24 9.1 E 19 24 10 13 1028.3 1027.2 0.0
04/11:30am 18.6 12.6 -1.3 26 8.6 E 20 28 11 15 1028.5 1027.4 0.0
04/11:00am 18.2 11.6 -0.6 28 8.3 E 24 30 13 16 1028.4 1027.3 0.0
04/10:30am 17.5 10.5 -0.2 30 7.8 E 26 35 14 19 1028.2 1027.1 0.0
04/10:00am 16.5 8.8 0.2 33 7.2 E 30 37 16 20 1027.8 1026.8 0.0
04/09:30am 15.8 9.7 0.4 35 6.7 ESE 22 30 12 16 1028.0 1026.9 0.0
04/09:00am 15.2 9.1 0.2 36 6.5 ESE 22 32 12 17 1027.7 1026.7 0.0
04/08:30am 15.2 8.7 0.2 36 6.5 ESE 24 33 13 18 1027.2 1026.2 0.0
04/08:00am 15.0 8.1 0.4 37 6.4 ESE 26 35 14 19 1026.7 1025.6 0.0
04/07:30am 15.4 8.5 0.4 36 6.5 E 26 37 14 20 1026.4 1025.3 0.0
04/07:00am 15.5 8.3 0.9 37 6.5 E 28 35 15 19 1026.3 1025.2 0.0
04/06:30am 15.6 8.8 0.6 36 6.6 E 26 35 14 19 1026.3 1025.2 0.0
04/06:00am 15.9 9.9 0.9 36 6.6 ESE 22 32 12 17 1026.4 1025.3 0.0
04/05:30am 16.1 10.5 1.0 36 6.7 ESE 20 33 11 18 1026.5 1025.4 0.0
04/05:00am 16.3 10.7 1.2 36 6.8 ESE 20 30 11 16 1026.2 1025.1 0.0
04/04:30am 16.5 10.9 1.0 35 6.9 ESE 20 28 11 15 1026.1 1025.0 0.0
04/04:00am 16.7 10.7 1.2 35 7.0 ESE 22 32 12 17 1026.0 1024.9 0.0
04/03:30am 17.0 10.6 1.0 34 7.2 ESE 24 33 13 18 1025.8 1024.7 0.0
04/03:00am 17.1 10.3 1.1 34 7.2 E 26 35 14 19 1025.3 1024.3 0.0
04/02:30am 17.3 10.5 0.9 33 7.4 E 26 33 14 18 1025.5 1024.5 0.0
04/02:00am 17.5 11.1 1.1 33 7.4 ESE 24 35 13 19 1025.4 1024.4 0.0
04/01:30am 17.7 9.8 1.2 33 7.5 ESE 32 41 17 22 1025.7 1024.6 0.0
04/01:00am 18.0 10.5 1.1 32 7.7 ESE 30 44 16 24 1025.7 1024.6 0.0
04/12:30am 18.3 10.8 0.9 31 7.9 ESE 30 46 16 25 1025.4 1024.4 0.0
04/12:28am 18.3 11.1 0.9 31 7.9 ESE 28 46 15 25 1025.4 1024.4 0.0
04/12:00am 18.7 11.5 0.8 30 8.1 ESE 28 43 15 23 1026.0 1024.9 0.0
 
Date/Time
CST
Temp
°C
App
Temp
°C
Dew
Point
°C
Rel
Hum
%
Delta-T
°C
Wind Press
QNH
hPa
Press
MSL
hPa
Rain since
9am
mm
Dir  Spd
km/h
Gust
km/h
Spd
kts
Gust
kts
03/11:30pm 19.1 12.7 1.1 30 8.2 ESE 24 41 13 22 1026.5 1025.4 0.0
03/11:00pm 19.4 11.5 0.9 29 8.5 SE 32 43 17 23 1026.3 1025.2 0.0
03/10:30pm 19.6 11.5 1.1 29 8.5 SE 33 43 18 23 1026.2 1025.1 0.0

Other formats

Comma delimited format used in spreadsheet applications
http://www.bom.gov.au/fwo/IDD60801/IDD60801.94321.axf

JavaScript Object Notation format (JSON) in row-major order
http://www.bom.gov.au/fwo/IDD60801/IDD60801.94321.json

Data quality

Most of these data are generated automatically and are frequently updated. Quality checks on data are not normally performed. It is possible for incorrect values to appear. Refer to information at About Latest Weather Observations and please check the disclaimer before using these data.